Time;durP1;ratioP1;P1;durP2;ratioP2;P2;SDS_P1;SDS_P2;PMS_P1;PMS_P2;Temp;Humidity;BMP_temperature;BMP_pressure;BME280_temperature;BME280_humidity;BME280_pressure;Samples;Min_cycle;Max_cycle;Signal;HPM_P1;HPM_P2
2024/02/07 00:00:52;;;;;;;3.65;2.10;;;;;;;;;;5055360;28;20405;-57
2024/02/07 00:03:18;;;;;;;3.05;1.40;;;;;;;;;;5054713;28;20020;-57
2024/02/07 00:05:44;;;;;;;6.38;1.25;;;;;;;;;;5054700;28;20360;-58
2024/02/07 00:08:10;;;;;;;3.97;1.88;;;;;;;;;;5054714;28;20039;-56
2024/02/07 00:10:36;;;;;;;2.40;1.42;;;;;;;;;;5055134;28;20107;-56
2024/02/07 00:13:02;;;;;;;2.63;1.80;;;;;;;;;;5054736;28;20017;-57
2024/02/07 00:15:28;;;;;;;3.63;2.20;;;;;;;;;;5054604;28;20460;-58
2024/02/07 00:17:54;;;;;;;2.70;1.50;;;;;;;;;;5054298;28;20036;-57
2024/02/07 00:20:20;;;;;;;3.63;1.88;;;;;;;;;;5054968;28;20021;-58
2024/02/07 00:22:46;;;;;;;4.57;1.92;;;;;;;;;;5054627;28;20028;-58
2024/02/07 00:25:12;;;;;;;4.70;1.65;;;;;;;;;;5054667;28;20059;-58
2024/02/07 00:27:38;;;;;;;2.90;1.60;;;;;;;;;;5054885;28;20363;-58
2024/02/07 00:30:05;;;;;;;3.08;1.35;;;;;;;;;;5054271;28;20021;-58
2024/02/07 00:32:31;;;;;;;3.78;1.58;;;;;;;;;;5054162;28;20028;-56
2024/02/07 00:34:57;;;;;;;5.40;1.92;;;;;;;;;;5053345;28;20086;-58
2024/02/07 00:37:23;;;;;;;3.00;1.48;;;;;;;;;;5054060;28;20035;-58
2024/02/07 00:39:49;;;;;;;6.20;2.75;;;;;;;;;;5054449;28;20100;-58
2024/02/07 00:42:15;;;;;;;2.50;1.67;;;;;;;;;;5054181;28;20025;-57
2024/02/07 00:44:40;;;;;;;2.85;1.27;;;;;;;;;;5054275;28;20025;-58
2024/02/07 00:47:07;;;;;;;2.75;1.40;;;;;;;;;;5053974;28;20068;-56
2024/02/07 00:49:33;;;;;;;5.13;1.55;;;;;;;;;;5054611;28;20024;-58
2024/02/07 00:51:59;;;;;;;2.42;1.40;;;;;;;;;;5053940;28;20473;-56
2024/02/07 00:54:25;;;;;;;4.57;2.28;;;;;;;;;;5053892;28;20438;-58
2024/02/07 00:56:55;;;;;;;2.85;1.60;;;;;;;;;;5054001;28;20082;-58
2024/02/07 00:59:21;;;;;;;2.30;1.23;;;;;;;;;;5054664;28;20130;-55
2024/02/07 01:01:47;;;;;;;3.20;1.77;;;;;;;;;;5054262;28;20025;-57
2024/02/07 01:04:13;;;;;;;6.18;2.08;;;;;;;;;;5054008;28;20029;-57
2024/02/07 01:06:39;;;;;;;4.03;1.45;;;;;;;;;;5054286;28;20351;-58
2024/02/07 01:09:06;;;;;;;3.33;1.77;;;;;;;;;;5053820;28;20072;-54
2024/02/07 01:11:32;;;;;;;4.50;1.60;;;;;;;;;;5053421;28;20029;-57
2024/02/07 01:13:58;;;;;;;3.55;1.70;;;;;;;;;;5053371;28;20024;-58
2024/02/07 01:16:24;;;;;;;3.45;1.33;;;;;;;;;;5053955;28;20021;-57
2024/02/07 01:18:53;;;;;;;3.63;2.17;;;;;;;;;;5053546;28;20039;-57
2024/02/07 01:21:19;;;;;;;2.17;1.50;;;;;;;;;;5053795;28;20455;-56
2024/02/07 01:23:46;;;;;;;3.22;1.63;;;;;;;;;;5053373;28;20029;-58
2024/02/07 01:26:15;;;;;;;5.22;1.98;;;;;;;;;;5053591;28;20452;-58
2024/02/07 01:28:41;;;;;;;3.00;1.33;;;;;;;;;;5054189;28;20039;-56
2024/02/07 01:31:08;;;;;;;3.03;1.67;;;;;;;;;;5053446;28;20119;-57
2024/02/07 01:33:37;;;;;;;3.38;1.63;;;;;;;;;;5053568;28;20389;-57
2024/02/07 01:36:03;;;;;;;3.75;1.77;;;;;;;;;;5053514;28;20021;-58
2024/02/07 01:38:29;;;;;;;2.53;1.52;;;;;;;;;;5053353;28;20040;-56
2024/02/07 01:40:58;;;;;;;2.70;1.75;;;;;;;;;;5053556;28;20071;-55
2024/02/07 01:43:28;;;;;;;3.25;1.75;;;;;;;;;;5053359;28;20072;-56
2024/02/07 01:45:55;;;;;;;4.55;1.90;;;;;;;;;;5054634;28;20025;-56
2024/02/07 01:48:21;;;;;;;3.45;1.77;;;;;;;;;;5058221;28;20360;-56
2024/02/07 01:50:47;;;;;;;2.97;1.92;;;;;;;;;;5057382;28;20032;-57
2024/02/07 01:53:13;;;;;;;4.35;2.30;;;;;;;;;;5057522;28;20363;-58
2024/02/07 01:55:39;;;;;;;7.47;2.45;;;;;;;;;;5057096;28;20041;-58
2024/02/07 01:58:05;;;;;;;4.30;1.80;;;;;;;;;;5057138;28;20037;-58
2024/02/07 02:00:34;;;;;;;2.97;1.85;;;;;;;;;;5057146;28;20025;-57
2024/02/07 02:03:01;;;;;;;2.90;1.83;;;;;;;;;;5057068;28;20047;-57
2024/02/07 02:05:27;;;;;;;5.18;1.65;;;;;;;;;;5055868;28;20041;-58
2024/02/07 02:07:53;;;;;;;3.35;1.75;;;;;;;;;;5057565;28;20040;-58
2024/02/07 02:10:19;;;;;;;2.80;1.60;;;;;;;;;;5056980;28;20112;-58
2024/02/07 02:12:45;;;;;;;2.97;1.60;;;;;;;;;;5057429;28;20025;-58
2024/02/07 02:15:11;;;;;;;3.75;1.75;;;;;;;;;;5057104;28;20467;-57
2024/02/07 02:17:37;;;;;;;3.33;2.00;;;;;;;;;;5056628;28;20115;-58
2024/02/07 02:20:07;;;;;;;2.17;1.42;;;;;;;;;;5056741;28;20024;-57
2024/02/07 02:22:36;;;;;;;2.00;1.45;;;;;;;;;;5056755;28;20033;-58
2024/02/07 02:25:20;;;;;;;3.65;1.70;;;;;;;;;;5057163;28;20072;-57
2024/02/07 02:28:01;;;;;;;4.28;2.28;;;;;;;;;;5056679;28;20455;-57
2024/02/07 02:30:40;;;;;;;2.17;1.52;;;;;;;;;;5056792;28;20532;-57
2024/02/07 02:33:09;;;;;;;3.90;2.10;;;;;;;;;;5057175;28;20068;-57
2024/02/07 02:35:37;;;;;;;3.13;1.80;;;;;;;;;;5057002;28;20021;-56
2024/02/07 02:38:03;;;;;;;2.63;1.67;;;;;;;;;;5056966;28;20374;-58
2024/02/07 02:40:31;;;;;;;6.82;1.95;;;;;;;;;;5056878;28;20040;-58
2024/02/07 02:43:01;;;;;;;3.90;1.77;;;;;;;;;;5056292;28;20033;-57
2024/02/07 02:45:27;;;;;;;3.57;1.90;;;;;;;;;;5057379;28;20029;-58
2024/02/07 02:47:54;;;;;;;3.35;1.52;;;;;;;;;;5055970;28;20123;-58
2024/02/07 02:50:21;;;;;;;6.65;2.20;;;;;;;;;;5056712;28;20036;-58
2024/02/07 02:52:47;;;;;;;6.38;1.95;;;;;;;;;;5056903;28;20029;-58
2024/02/07 02:55:13;;;;;;;4.05;2.33;;;;;;;;;;5055512;28;20445;-58
2024/02/07 02:57:40;;;;;;;3.05;1.90;;;;;;;;;;5055515;28;20124;-57
2024/02/07 03:00:07;;;;;;;4.35;2.15;;;;;;;;;;5056516;28;20086;-57
2024/02/07 03:02:33;;;;;;;3.60;1.52;;;;;;;;;;5055975;28;20103;-58
2024/02/07 03:05:02;;;;;;;5.65;2.08;;;;;;;;;;5055789;28;20029;-58
2024/02/07 03:07:54;;;;;;;4.10;1.90;;;;;;;;;;5056347;28;20094;-58
2024/02/07 03:10:21;;;;;;;3.80;1.90;;;;;;;;;;5056724;28;20025;-57
2024/02/07 03:12:46;;;;;;;4.03;1.95;;;;;;;;;;5056228;28;20516;-57
2024/02/07 03:15:12;;;;;;;5.72;1.95;;;;;;;;;;5055829;28;20025;-57
2024/02/07 03:17:38;;;;;;;5.75;1.85;;;;;;;;;;5055556;28;20128;-57
2024/02/07 03:20:05;;;;;;;3.25;1.90;;;;;;;;;;5055676;28;20063;-58
2024/02/07 03:22:31;;;;;;;2.78;1.88;;;;;;;;;;5055599;28;20087;-56
2024/02/07 03:24:57;;;;;;;3.75;1.83;;;;;;;;;;5055290;28;20025;-57
2024/02/07 03:27:23;;;;;;;2.28;1.52;;;;;;;;;;5055959;28;20039;-58
2024/02/07 03:29:49;;;;;;;3.55;1.75;;;;;;;;;;5055764;28;20033;-58
2024/02/07 03:32:15;;;;;;;5.20;2.08;;;;;;;;;;5055408;28;20036;-55
2024/02/07 03:34:42;;;;;;;4.70;2.30;;;;;;;;;;5055178;28;20029;-57
2024/02/07 03:37:08;;;;;;;4.03;2.00;;;;;;;;;;5055169;28;20087;-58
2024/02/07 03:39:34;;;;;;;3.17;1.58;;;;;;;;;;5055290;28;20033;-58
2024/02/07 03:42:00;;;;;;;3.25;1.65;;;;;;;;;;5055573;28;20095;-57
2024/02/07 03:44:27;;;;;;;3.78;2.03;;;;;;;;;;5055952;28;20355;-58
2024/02/07 03:46:54;;;;;;;2.58;1.73;;;;;;;;;;5055073;28;20033;-58
2024/02/07 03:49:20;;;;;;;3.28;2.03;;;;;;;;;;5055598;28;20028;-58
2024/02/07 03:51:47;;;;;;;3.92;1.98;;;;;;;;;;5055545;28;20033;-58
2024/02/07 03:54:14;;;;;;;3.05;2.55;;;;;;;;;;5055536;28;20029;-58
2024/02/07 03:56:40;;;;;;;3.78;2.00;;;;;;;;;;5054899;28;20071;-57
2024/02/07 03:59:07;;;;;;;2.38;1.75;;;;;;;;;;5054535;28;20502;-58
2024/02/07 04:01:32;;;;;;;4.95;1.88;;;;;;;;;;5055326;28;20036;-57
2024/02/07 04:03:58;;;;;;;3.40;2.13;;;;;;;;;;5054514;28;20375;-58
2024/02/07 04:06:25;;;;;;;3.85;2.05;;;;;;;;;;5054732;28;20028;-57
2024/02/07 04:08:51;;;;;;;4.70;1.88;;;;;;;;;;5055422;28;20033;-58
2024/02/07 05:16:33;;;;;;;2.17;1.23;;;;;;;;;;5054072;28;20160;-57
2024/02/07 05:19:01;;;;;;;3.70;1.77;;;;;;;;;;5053622;28;20021;-57
2024/02/07 05:21:27;;;;;;;1.63;1.00;;;;;;;;;;5053975;28;20040;-57
2024/02/07 05:23:53;;;;;;;2.63;1.63;;;;;;;;;;5053952;28;20021;-57
2024/02/07 05:26:19;;;;;;;3.53;1.70;;;;;;;;;;5053568;28;20014;-57
2024/02/07 05:28:46;;;;;;;7.07;2.45;;;;;;;;;;5054422;28;20029;-55
2024/02/07 05:31:15;;;;;;;2.03;1.23;;;;;;;;;;5054323;28;20348;-56
2024/02/07 05:33:41;;;;;;;3.65;1.70;;;;;;;;;;5053158;28;20017;-55
2024/02/07 05:36:08;;;;;;;3.50;1.33;;;;;;;;;;5053706;28;20478;-57
2024/02/07 05:38:38;;;;;;;3.55;2.00;;;;;;;;;;5054204;28;20025;-57
2024/02/07 05:41:04;;;;;;;4.37;1.67;;;;;;;;;;5053951;28;20131;-56
2024/02/07 05:43:30;;;;;;;2.95;1.75;;;;;;;;;;5053862;28;20252;-58
2024/02/07 05:45:56;;;;;;;3.40;1.98;;;;;;;;;;5054167;28;20348;-58
2024/02/07 05:48:22;;;;;;;3.20;1.77;;;;;;;;;;5053632;28;20025;-57
2024/02/07 05:50:48;;;;;;;6.20;1.83;;;;;;;;;;5053780;28;20478;-57
2024/02/07 05:53:14;;;;;;;2.88;1.20;;;;;;;;;;5054040;28;20078;-55
2024/02/07 05:55:42;;;;;;;2.60;1.67;;;;;;;;;;5053817;28;20132;-57
2024/02/07 05:58:09;;;;;;;2.53;1.30;;;;;;;;;;5053767;28;20111;-58
2024/02/07 06:00:35;;;;;;;3.80;1.85;;;;;;;;;;5053274;28;20029;-58
2024/02/07 06:03:05;;;;;;;3.22;1.92;;;;;;;;;;5053385;28;20116;-57
2024/02/07 06:05:33;;;;;;;2.28;1.40;;;;;;;;;;5053320;28;20384;-57
2024/02/07 06:07:59;;;;;;;3.58;1.60;;;;;;;;;;5053268;28;20031;-57
2024/02/07 06:10:25;;;;;;;2.42;1.58;;;;;;;;;;5053266;28;20434;-57
2024/02/07 06:12:51;;;;;;;2.83;1.70;;;;;;;;;;5053627;28;20028;-57
2024/02/07 06:15:17;;;;;;;3.80;2.28;;;;;;;;;;5053082;28;20043;-56
2024/02/07 06:17:43;;;;;;;3.17;1.52;;;;;;;;;;5053005;28;20021;-54
2024/02/07 06:20:10;;;;;;;7.68;1.55;;;;;;;;;;5053055;28;20029;-57
2024/02/07 06:22:36;;;;;;;3.05;1.83;;;;;;;;;;5053103;28;20025;-55
2024/02/07 06:25:03;;;;;;;2.60;1.38;;;;;;;;;;5053932;28;20029;-55
2024/02/07 06:27:29;;;;;;;3.63;1.77;;;;;;;;;;5053034;28;20064;-55
2024/02/07 06:29:55;;;;;;;2.35;1.75;;;;;;;;;;5053132;28;20455;-56
2024/02/07 06:32:21;;;;;;;3.72;1.80;;;;;;;;;;5053097;28;20029;-57
2024/02/07 06:34:47;;;;;;;3.10;2.28;;;;;;;;;;5056448;28;20021;-56
2024/02/07 06:37:13;;;;;;;3.40;1.77;;;;;;;;;;5056702;28;20032;-54
2024/02/07 06:39:39;;;;;;;4.25;2.05;;;;;;;;;;5056944;28;20104;-55
2024/02/07 06:42:05;;;;;;;3.20;2.13;;;;;;;;;;5057021;28;20056;-57
2024/02/07 06:44:31;;;;;;;3.17;1.83;;;;;;;;;;5056402;28;20102;-53
2024/02/07 06:46:57;;;;;;;3.47;2.08;;;;;;;;;;5056891;28;20033;-54
2024/02/07 06:49:23;;;;;;;6.30;2.10;;;;;;;;;;5056451;28;20040;-55
2024/02/07 06:51:49;;;;;;;5.10;2.28;;;;;;;;;;5056064;28;20021;-52
2024/02/07 06:54:15;;;;;;;4.00;1.98;;;;;;;;;;5056444;28;20028;-54
2024/02/07 06:56:41;;;;;;;2.88;1.83;;;;;;;;;;5056252;28;20052;-53
2024/02/07 06:59:11;;;;;;;4.22;2.30;;;;;;;;;;5056463;28;20116;-55
2024/02/07 07:01:37;;;;;;;2.92;1.90;;;;;;;;;;5056780;28;20119;-57
2024/02/07 07:04:02;;;;;;;3.40;2.08;;;;;;;;;;5056616;28;20067;-54
2024/02/07 07:06:28;;;;;;;4.65;2.10;;;;;;;;;;5056851;28;20392;-56
2024/02/07 07:08:54;;;;;;;3.20;2.03;;;;;;;;;;5056205;28;20032;-53
2024/02/07 07:11:20;;;;;;;3.50;2.10;;;;;;;;;;5056727;28;20351;-56
2024/02/07 07:13:46;;;;;;;3.00;2.15;;;;;;;;;;5055735;28;20040;-54
2024/02/07 07:16:12;;;;;;;4.47;2.20;;;;;;;;;;5055797;28;20029;-55
2024/02/07 07:18:38;;;;;;;4.15;3.05;;;;;;;;;;5056296;28;20108;-57
2024/02/07 07:21:07;;;;;;;6.60;2.10;;;;;;;;;;5055760;28;20029;-55
2024/02/07 07:23:33;;;;;;;4.00;2.17;;;;;;;;;;5055783;28;20031;-52
2024/02/07 07:25:58;;;;;;;5.15;2.00;;;;;;;;;;5055690;28;20029;-53
2024/02/07 07:28:24;;;;;;;4.45;2.13;;;;;;;;;;5056161;28;20155;-55
2024/02/07 07:30:52;;;;;;;3.17;1.73;;;;;;;;;;5056006;28;20029;-54
2024/02/07 07:33:18;;;;;;;7.95;2.92;;;;;;;;;;5055531;28;20078;-51
2024/02/07 07:35:44;;;;;;;3.83;2.30;;;;;;;;;;5055058;28;20029;-54
2024/02/07 07:38:10;;;;;;;10.55;2.42;;;;;;;;;;5055344;28;20110;-54
2024/02/07 07:40:39;;;;;;;4.80;2.90;;;;;;;;;;5056212;28;20032;-53
2024/02/07 07:43:05;;;;;;;3.60;2.22;;;;;;;;;;5055867;28;20060;-56
2024/02/07 07:45:31;;;;;;;3.45;2.10;;;;;;;;;;5055686;28;20021;-51
2024/02/07 07:47:57;;;;;;;3.55;2.08;;;;;;;;;;5055751;28;20033;-53
2024/02/07 07:50:23;;;;;;;2.88;1.88;;;;;;;;;;5055207;28;20159;-55
2024/02/07 07:52:49;;;;;;;3.40;2.05;;;;;;;;;;5055377;28;20458;-55
2024/02/07 07:55:15;;;;;;;6.53;2.60;;;;;;;;;;5054795;28;20025;-52
2024/02/07 07:57:41;;;;;;;3.38;2.33;;;;;;;;;;5055386;28;20375;-56
2024/02/07 08:00:07;;;;;;;4.40;2.28;;;;;;;;;;5055804;28;20031;-54
2024/02/07 08:02:33;;;;;;;6.07;2.40;;;;;;;;;;5055203;28;20399;-57
2024/02/07 08:04:59;;;;;;;3.53;2.22;;;;;;;;;;5054560;28;20021;-57
2024/02/07 08:07:25;;;;;;;4.75;2.63;;;;;;;;;;5054859;28;20029;-56
2024/02/07 08:09:51;;;;;;;4.25;2.03;;;;;;;;;;5055429;28;20025;-56
2024/02/07 08:12:17;;;;;;;5.20;1.98;;;;;;;;;;5054452;28;20029;-57
2024/02/07 08:14:43;;;;;;;3.40;2.20;;;;;;;;;;5054982;28;20079;-57
2024/02/07 08:17:10;;;;;;;4.50;2.20;;;;;;;;;;5054715;28;20021;-53
2024/02/07 08:19:35;;;;;;;3.55;2.40;;;;;;;;;;5054892;28;20033;-57
2024/02/07 08:22:01;;;;;;;3.28;1.65;;;;;;;;;;5054014;28;20481;-56
2024/02/07 08:24:27;;;;;;;4.07;2.60;;;;;;;;;;5054376;28;20028;-54
2024/02/07 08:26:53;;;;;;;3.50;2.20;;;;;;;;;;5054880;28;20021;-57
2024/02/07 08:29:19;;;;;;;4.07;1.83;;;;;;;;;;5054898;28;20028;-55
2024/02/07 08:31:45;;;;;;;4.82;2.38;;;;;;;;;;5054799;28;20059;-57
2024/02/07 08:34:13;;;;;;;7.32;2.47;;;;;;;;;;5053423;28;20025;-57
2024/02/07 08:36:39;;;;;;;5.47;2.35;;;;;;;;;;5053936;28;20474;-55
2024/02/07 08:39:05;;;;;;;4.20;2.30;;;;;;;;;;5054178;28;20035;-55
2024/02/07 08:41:31;;;;;;;6.07;2.35;;;;;;;;;;5054689;28;20057;-57
2024/02/07 08:43:57;;;;;;;6.18;2.33;;;;;;;;;;5054657;28;20068;-55
2024/02/07 08:46:23;;;;;;;3.28;2.25;;;;;;;;;;5054133;28;20025;-57
2024/02/07 08:48:49;;;;;;;3.75;2.33;;;;;;;;;;5054691;28;20056;-56
2024/02/07 08:51:16;;;;;;;3.50;1.85;;;;;;;;;;5054078;28;20366;-57
2024/02/07 08:53:42;;;;;;;3.58;2.33;;;;;;;;;;5054525;28;20025;-53
2024/02/07 08:56:08;;;;;;;4.40;1.90;;;;;;;;;;5053514;28;20041;-57
2024/02/07 08:58:34;;;;;;;3.15;1.55;;;;;;;;;;5053824;28;20068;-56
2024/02/07 09:01:00;;;;;;;4.25;2.38;;;;;;;;;;5053884;28;20028;-57
2024/02/07 09:03:27;;;;;;;3.15;2.20;;;;;;;;;;5053948;28;20469;-57
2024/02/07 09:05:52;;;;;;;3.25;1.77;;;;;;;;;;5054575;28;20033;-55
2024/02/07 09:08:18;;;;;;;7.50;1.95;;;;;;;;;;5054305;28;20474;-56
2024/02/07 09:10:44;;;;;;;3.08;1.70;;;;;;;;;;5053719;28;20021;-55
2024/02/07 09:13:10;;;;;;;7.60;2.50;;;;;;;;;;5053413;28;20112;-56
2024/02/07 09:15:36;;;;;;;2.95;1.55;;;;;;;;;;5054229;28;20021;-55
2024/02/07 09:18:02;;;;;;;3.08;1.58;;;;;;;;;;5054139;28;20029;-55
2024/02/07 09:20:28;;;;;;;3.25;2.10;;;;;;;;;;5053694;28;20033;-56
2024/02/07 09:22:54;;;;;;;2.50;1.63;;;;;;;;;;5053523;28;20075;-55
2024/02/07 09:25:20;;;;;;;2.83;1.77;;;;;;;;;;5053565;28;20021;-55
2024/02/07 09:27:46;;;;;;;2.47;1.60;;;;;;;;;;5053572;28;20391;-57
2024/02/07 09:30:12;;;;;;;2.78;1.98;;;;;;;;;;5053539;28;20029;-56
2024/02/07 09:32:42;;;;;;;5.20;1.98;;;;;;;;;;5053095;28;20535;-57
2024/02/07 09:35:08;;;;;;;3.33;1.83;;;;;;;;;;5054033;28;20025;-55
2024/02/07 09:37:34;;;;;;;4.30;2.10;;;;;;;;;;5053916;28;20033;-56
2024/02/07 09:40:00;;;;;;;3.75;2.17;;;;;;;;;;5053499;28;20056;-57
2024/02/07 09:42:26;;;;;;;2.42;1.90;;;;;;;;;;5053757;28;20418;-57
2024/02/07 09:44:52;;;;;;;4.70;2.28;;;;;;;;;;5053380;28;20036;-57
2024/02/07 09:47:19;;;;;;;5.40;2.67;;;;;;;;;;5053422;28;20028;-55
2024/02/07 09:49:47;;;;;;;4.35;1.88;;;;;;;;;;5053415;28;20025;-56
2024/02/07 09:52:14;;;;;;;2.78;1.70;;;;;;;;;;5053315;28;20035;-55
2024/02/07 09:54:46;;;;;;;4.78;2.47;;;;;;;;;;5053341;28;20029;-56
2024/02/07 09:57:12;;;;;;;5.25;3.05;;;;;;;;;;5053092;28;20390;-57
2024/02/07 09:59:38;;;;;;;4.82;2.55;;;;;;;;;;5053812;28;20072;-52
2024/02/07 10:02:04;;;;;;;3.10;2.03;;;;;;;;;;5053194;28;20451;-56
2024/02/07 10:04:34;;;;;;;4.57;2.10;;;;;;;;;;5053532;28;20029;-56
2024/02/07 10:07:00;;;;;;;5.25;2.20;;;;;;;;;;5054270;28;20120;-56
2024/02/07 10:09:29;;;;;;;6.63;2.15;;;;;;;;;;5057672;28;20443;-57
2024/02/07 10:11:55;;;;;;;4.97;2.00;;;;;;;;;;5057225;28;20097;-55
2024/02/07 10:14:22;;;;;;;3.50;1.83;;;;;;;;;;5056926;28;20021;-57
2024/02/07 10:16:48;;;;;;;5.20;1.80;;;;;;;;;;5056586;28;20112;-57
2024/02/07 10:19:14;;;;;;;2.80;1.58;;;;;;;;;;5056764;28;20104;-56
2024/02/07 10:21:40;;;;;;;3.88;2.08;;;;;;;;;;5056557;28;20052;-57
2024/02/07 10:24:07;;;;;;;3.42;1.58;;;;;;;;;;5057371;28;20056;-56
2024/02/07 10:26:33;;;;;;;3.90;1.90;;;;;;;;;;5056703;28;20053;-56
2024/02/07 10:29:03;;;;;;;3.03;1.90;;;;;;;;;;5057279;28;20032;-57
2024/02/07 10:31:29;;;;;;;2.15;1.50;;;;;;;;;;5056740;28;20446;-57
2024/02/07 10:33:57;;;;;;;2.95;1.60;;;;;;;;;;5056580;28;20025;-57
2024/02/07 10:36:24;;;;;;;2.88;1.67;;;;;;;;;;5056529;28;20486;-57
2024/02/07 10:38:51;;;;;;;2.40;1.27;;;;;;;;;;5056992;28;20029;-55
2024/02/07 10:41:17;;;;;;;3.03;1.80;;;;;;;;;;5056447;28;20388;-55
2024/02/07 10:43:43;;;;;;;3.25;1.35;;;;;;;;;;5056382;28;20021;-55
2024/02/07 10:46:13;;;;;;;5.50;2.10;;;;;;;;;;5056564;28;20017;-57
2024/02/07 10:48:39;;;;;;;4.47;2.13;;;;;;;;;;5056940;28;20052;-57
2024/02/07 10:51:05;;;;;;;4.32;1.08;;;;;;;;;;5056529;28;20598;-56
2024/02/07 10:53:32;;;;;;;2.40;1.30;;;;;;;;;;5056983;28;20448;-56
2024/02/07 10:55:59;;;;;;;4.93;1.70;;;;;;;;;;5055879;28;20073;-56
2024/02/07 10:58:26;;;;;;;2.30;1.38;;;;;;;;;;5056567;28;20394;-58
2024/02/07 11:00:52;;;;;;;3.28;1.60;;;;;;;;;;5055776;28;20402;-60
2024/02/07 11:03:22;;;;;;;3.67;1.90;;;;;;;;;;5056553;28;20075;-56
2024/02/07 11:05:48;;;;;;;2.60;1.55;;;;;;;;;;5055830;28;20064;-58
2024/02/07 11:08:14;;;;;;;3.95;1.50;;;;;;;;;;5055950;28;20063;-57
2024/02/07 11:10:41;;;;;;;2.58;1.65;;;;;;;;;;5055867;28;20025;-55
2024/02/07 11:13:10;;;;;;;2.22;1.10;;;;;;;;;;5056146;28;20028;-55
2024/02/07 11:15:35;;;;;;;3.45;2.08;;;;;;;;;;5056128;28;20103;-54
2024/02/07 11:18:02;;;;;;;4.03;1.38;;;;;;;;;;5055469;28;20025;-51
2024/02/07 11:20:28;;;;;;;3.08;1.90;;;;;;;;;;5055107;28;20370;-56
2024/02/07 11:22:55;;;;;;;3.55;2.08;;;;;;;;;;5056379;28;20474;-56
2024/02/07 11:25:23;;;;;;;1.88;1.30;;;;;;;;;;5055578;28;20099;-55
2024/02/07 11:27:51;;;;;;;2.05;1.23;;;;;;;;;;5056052;28;20029;-56
2024/02/07 11:30:18;;;;;;;4.22;1.92;;;;;;;;;;5055408;28;20056;-54
2024/02/07 11:32:47;;;;;;;3.05;1.80;;;;;;;;;;5055433;28;20037;-55
2024/02/07 11:35:13;;;;;;;2.70;1.55;;;;;;;;;;5055349;28;20028;-56
2024/02/07 11:37:39;;;;;;;2.65;1.38;;;;;;;;;;5055177;28;20447;-54
2024/02/07 11:40:06;;;;;;;4.40;1.83;;;;;;;;;;5055163;28;20116;-55
2024/02/07 11:42:37;;;;;;;3.97;1.48;;;;;;;;;;5055201;28;20082;-54
2024/02/07 11:45:04;;;;;;;6.68;1.83;;;;;;;;;;5055257;28;20048;-53
2024/02/07 11:47:32;;;;;;;3.25;1.52;;;;;;;;;;5055171;28;20079;-54
2024/02/07 11:50:02;;;;;;;3.03;1.60;;;;;;;;;;5055179;28;20032;-53
2024/02/07 11:52:29;;;;;;;3.35;1.40;;;;;;;;;;5055094;28;20466;-54
2024/02/07 11:55:00;;;;;;;2.35;1.00;;;;;;;;;;5055088;28;20116;-52
2024/02/07 11:57:26;;;;;;;3.67;1.23;;;;;;;;;;5055647;28;20049;-55
2024/02/07 11:59:52;;;;;;;2.58;1.38;;;;;;;;;;5054948;28;20029;-57
2024/02/07 12:02:18;;;;;;;2.10;0.90;;;;;;;;;;5055196;28;20158;-53
2024/02/07 12:04:45;;;;;;;1.55;0.88;;;;;;;;;;5054483;28;20028;-53
2024/02/07 12:07:11;;;;;;;2.47;1.40;;;;;;;;;;5054622;28;20049;-51
2024/02/07 12:09:38;;;;;;;1.58;0.98;;;;;;;;;;5054973;28;20036;-55
2024/02/07 12:12:06;;;;;;;3.03;1.52;;;;;;;;;;5054372;28;20536;-54
2024/02/07 12:14:32;;;;;;;1.33;0.75;;;;;;;;;;5055628;28;20033;-54
2024/02/07 12:16:58;;;;;;;2.25;0.90;;;;;;;;;;5055040;28;20029;-55
2024/02/07 12:19:24;;;;;;;1.80;0.90;;;;;;;;;;5055000;28;20363;-52
2024/02/07 12:21:50;;;;;;;3.70;0.95;;;;;;;;;;5054044;28;20029;-55
2024/02/07 12:24:15;;;;;;;1.67;0.98;;;;;;;;;;5054211;28;20069;-55
2024/02/07 12:26:41;;;;;;;1.92;1.00;;;;;;;;;;5053854;28;20083;-54
2024/02/07 12:29:07;;;;;;;2.10;1.00;;;;;;;;;;5054774;28;20091;-56
2024/02/07 12:31:34;;;;;;;1.88;1.00;;;;;;;;;;5053748;28;20024;-56
2024/02/07 12:34:00;;;;;;;2.22;1.10;;;;;;;;;;5054350;28;20064;-55
2024/02/07 12:36:26;;;;;;;1.67;0.85;;;;;;;;;;5054668;28;20028;-54
2024/02/07 12:38:52;;;;;;;1.67;0.70;;;;;;;;;;5054656;28;20111;-56
2024/02/07 12:41:18;;;;;;;1.63;0.80;;;;;;;;;;5054896;28;20443;-56
2024/02/07 12:43:44;;;;;;;1.70;0.80;;;;;;;;;;5053979;28;20116;-56
2024/02/07 12:46:10;;;;;;;1.40;0.60;;;;;;;;;;5053942;28;20067;-56
2024/02/07 12:48:36;;;;;;;1.88;0.90;;;;;;;;;;5054526;28;20040;-54
2024/02/07 12:51:02;;;;;;;2.10;1.15;;;;;;;;;;5053934;28;20451;-55
2024/02/07 12:53:28;;;;;;;2.47;0.80;;;;;;;;;;5054653;28;20032;-56
2024/02/07 12:55:54;;;;;;;1.95;0.93;;;;;;;;;;5054246;28;20049;-57
2024/02/07 12:58:20;;;;;;;5.28;0.98;;;;;;;;;;5053842;28;20056;-58
2024/02/07 13:00:47;;;;;;;1.42;0.77;;;;;;;;;;5053860;28;20127;-56
2024/02/07 13:03:13;;;;;;;1.80;1.00;;;;;;;;;;5053335;28;20498;-56
2024/02/07 13:05:39;;;;;;;2.00;0.77;;;;;;;;;;5053800;28;20121;-55
2024/02/07 13:08:09;;;;;;;1.35;0.70;;;;;;;;;;5054093;28;20102;-58
2024/02/07 13:10:35;;;;;;;2.88;0.98;;;;;;;;;;5054146;28;20028;-54
2024/02/07 13:13:03;;;;;;;1.88;0.95;;;;;;;;;;5053666;28;20087;-56
2024/02/07 13:15:29;;;;;;;1.67;0.73;;;;;;;;;;5053539;28;20040;-58
2024/02/07 13:17:55;;;;;;;1.40;0.82;;;;;;;;;;5054076;28;20033;-55
2024/02/07 13:20:21;;;;;;;3.80;1.10;;;;;;;;;;5053559;28;20060;-57
2024/02/07 13:22:48;;;;;;;1.52;0.70;;;;;;;;;;5054281;28;20032;-56
2024/02/07 13:25:14;;;;;;;1.42;0.80;;;;;;;;;;5053760;28;20028;-55
2024/02/07 13:27:42;;;;;;;1.65;0.90;;;;;;;;;;5053399;28;20021;-58
2024/02/07 13:30:09;;;;;;;2.30;1.02;;;;;;;;;;5054261;28;20040;-57
2024/02/07 13:32:35;;;;;;;2.85;1.20;;;;;;;;;;5053441;28;20029;-54
2024/02/07 13:35:02;;;;;;;2.05;0.93;;;;;;;;;;5053897;28;20040;-57
2024/02/07 13:37:27;;;;;;;2.65;1.42;;;;;;;;;;5053386;28;20366;-58
2024/02/07 13:39:55;;;;;;;3.60;1.08;;;;;;;;;;5053875;28;20028;-57
2024/02/07 13:42:21;;;;;;;1.48;0.68;;;;;;;;;;5054769;28;20091;-58
2024/02/07 13:44:47;;;;;;;1.25;0.65;;;;;;;;;;5057363;28;20033;-58
2024/02/07 13:47:12;;;;;;;2.88;1.00;;;;;;;;;;5057336;28;20079;-58
2024/02/07 13:49:38;;;;;;;3.92;1.10;;;;;;;;;;5057218;28;20037;-58
2024/02/07 13:52:05;;;;;;;2.83;0.80;;;;;;;;;;5057881;28;20048;-57
2024/02/07 13:54:32;;;;;;;2.30;1.02;;;;;;;;;;5057449;28;20427;-58
2024/02/07 13:56:58;;;;;;;1.63;0.70;;;;;;;;;;5056722;28;20049;-58
2024/02/07 13:59:24;;;;;;;1.55;0.70;;;;;;;;;;5057267;28;20040;-58
2024/02/07 14:01:50;;;;;;;1.83;1.02;;;;;;;;;;5056977;28;20051;-57
2024/02/07 14:04:16;;;;;;;1.52;0.63;;;;;;;;;;5057304;28;20033;-56
2024/02/07 14:06:42;;;;;;;1.08;0.60;;;;;;;;;;5057295;28;20040;-56
2024/02/07 14:09:08;;;;;;;1.83;1.00;;;;;;;;;;5057590;28;20032;-57
2024/02/07 14:11:40;;;;;;;1.77;0.90;;;;;;;;;;5056879;28;20400;-56
2024/02/07 14:14:06;;;;;;;2.53;1.08;;;;;;;;;;5057610;28;20033;-55
2024/02/07 14:16:32;;;;;;;1.50;0.82;;;;;;;;;;5056770;28;20087;-53
2024/02/07 14:18:58;;;;;;;1.88;1.17;;;;;;;;;;5056681;28;20029;-58
2024/02/07 14:21:24;;;;;;;2.42;1.17;;;;;;;;;;5056853;28;20056;-57
2024/02/07 14:23:50;;;;;;;2.47;1.10;;;;;;;;;;5057562;28;20071;-58
2024/02/07 14:26:16;;;;;;;2.05;1.17;;;;;;;;;;5056811;28;20108;-58
2024/02/07 14:28:42;;;;;;;1.42;0.80;;;;;;;;;;5057427;28;20455;-58
2024/02/07 14:31:08;;;;;;;1.95;0.85;;;;;;;;;;5056771;28;20061;-58
2024/02/07 14:33:34;;;;;;;4.88;1.02;;;;;;;;;;5056638;28;20459;-58
2024/02/07 14:36:00;;;;;;;3.47;1.38;;;;;;;;;;5056882;28;20474;-57
2024/02/07 14:38:28;;;;;;;2.05;0.90;;;;;;;;;;5057380;28;20071;-56
2024/02/07 14:40:55;;;;;;;1.55;0.88;;;;;;;;;;5056469;28;20355;-58
2024/02/07 14:43:21;;;;;;;1.58;0.90;;;;;;;;;;5056983;28;20123;-56
2024/02/07 14:45:48;;;;;;;2.17;1.35;;;;;;;;;;5056581;28;20158;-55
2024/02/07 14:48:14;;;;;;;2.13;1.23;;;;;;;;;;5056940;28;20029;-56
2024/02/07 14:50:40;;;;;;;1.77;0.80;;;;;;;;;;5056842;28;20031;-58
2024/02/07 14:53:06;;;;;;;3.20;1.10;;;;;;;;;;5055518;28;20025;-55
2024/02/07 14:55:33;;;;;;;2.72;1.33;;;;;;;;;;5055976;28;20525;-58
2024/02/07 14:57:59;;;;;;;1.85;1.02;;;;;;;;;;5056695;28;20036;-55
2024/02/07 15:00:24;;;;;;;1.90;1.30;;;;;;;;;;5056121;28;20091;-57
2024/02/07 15:02:50;;;;;;;2.10;1.20;;;;;;;;;;5056050;28;20032;-57
2024/02/07 15:05:16;;;;;;;3.10;1.17;;;;;;;;;;5056557;28;20103;-58
2024/02/07 15:07:46;;;;;;;1.83;1.08;;;;;;;;;;5055613;28;20546;-57
2024/02/07 15:10:12;;;;;;;3.55;1.40;;;;;;;;;;5055880;28;20112;-57
2024/02/07 15:12:38;;;;;;;1.50;0.65;;;;;;;;;;5055807;28;20113;-58
2024/02/07 15:15:06;;;;;;;1.67;0.70;;;;;;;;;;5056632;28;20022;-57
2024/02/07 15:17:31;;;;;;;1.60;0.90;;;;;;;;;;5055840;28;20078;-58
2024/02/07 15:19:57;;;;;;;1.48;0.90;;;;;;;;;;5055877;28;20111;-55
2024/02/07 15:22:23;;;;;;;3.53;1.02;;;;;;;;;;5055741;28;20025;-57
2024/02/07 15:24:49;;;;;;;1.70;0.98;;;;;;;;;;5055327;28;20064;-56
2024/02/07 15:27:15;;;;;;;2.22;1.13;;;;;;;;;;5056134;28;20032;-58
2024/02/07 15:29:41;;;;;;;2.67;0.90;;;;;;;;;;5056333;28;20033;-58
2024/02/07 15:32:07;;;;;;;2.10;1.05;;;;;;;;;;5055532;28;20118;-59
2024/02/07 15:34:33;;;;;;;2.15;0.85;;;;;;;;;;5055974;28;20071;-57
2024/02/07 15:36:59;;;;;;;2.40;1.05;;;;;;;;;;5055494;28;20105;-57
2024/02/07 15:39:25;;;;;;;2.35;1.05;;;;;;;;;;5055747;28;20198;-57
2024/02/07 15:41:51;;;;;;;4.13;2.00;;;;;;;;;;5055410;28;20383;-58
2024/02/07 15:44:17;;;;;;;2.03;1.17;;;;;;;;;;5055084;28;20028;-58